Time;durP1;ratioP1;P1;durP2;ratioP2;P2;SDS_P1;SDS_P2;PMS_P1;PMS_P2;Temp;Humidity;BMP_temperature;BMP_pressure;BME280_temperature;BME280_humidity;BME280_pressure;Samples;Min_cycle;Max_cycle;Signal;HPM_P1;HPM_P2
2022/01/19 00:01:26;;;;;;;23.23;8.15;;;;;;;7.22;100.00;102307.91;5046295;28;20039;-83
2022/01/19 00:03:51;;;;;;;22.55;8.38;;;;;;;7.21;100.00;102316.91;5048289;28;20028;-81
2022/01/19 00:06:17;;;;;;;29.05;6.80;;;;;;;7.17;100.00;102304.72;5063927;28;20379;-77
2022/01/19 00:08:49;;;;;;;13.18;5.40;;;;;;;7.15;100.00;102288.81;5047766;28;20036;-76
2022/01/19 00:11:16;;;;;;;6.10;3.92;;;;;;;7.21;100.00;102284.81;5047378;28;20029;-82
2022/01/19 00:13:42;;;;;;;9.77;5.10;;;;;;;7.24;100.00;102282.75;5027607;28;20123;-80
2022/01/19 00:16:07;;;;;;;23.10;7.90;;;;;;;7.23;100.00;102278.38;5046172;28;20029;-77
2022/01/19 00:18:33;;;;;;;30.15;10.05;;;;;;;7.22;100.00;102299.88;5018151;28;20033;-78
2022/01/19 00:20:59;;;;;;;15.68;7.05;;;;;;;7.18;100.00;102295.75;5031823;28;20047;-77
2022/01/19 00:23:24;;;;;;;40.47;12.70;;;;;;;7.15;100.00;102296.81;5023553;28;20047;-81
2022/01/19 00:25:52;;;;;;;25.80;8.45;;;;;;;7.14;100.00;102284.41;5048618;28;20040;-76
2022/01/19 00:28:18;;;;;;;16.60;5.57;;;;;;;7.10;100.00;102282.09;5035975;28;20041;-78
2022/01/19 00:30:44;;;;;;;25.83;8.55;;;;;;;7.06;100.00;102278.78;5044549;28;20033;-77
2022/01/19 00:33:10;;;;;;;25.50;8.60;;;;;;;7.02;100.00;102288.03;5066371;28;20073;-78
2022/01/19 00:35:40;;;;;;;23.77;10.40;;;;;;;6.91;100.00;102283.47;5013898;28;20032;-77
2022/01/19 00:38:07;;;;;;;37.28;8.32;;;;;;;6.91;100.00;102278.13;5014800;28;20653;-81
2022/01/19 00:40:32;;;;;;;22.88;10.02;;;;;;;6.83;100.00;102284.03;5027603;28;20033;-78
2022/01/19 00:42:58;;;;;;;23.25;8.32;;;;;;;6.81;100.00;102288.66;5016156;28;20039;-81
2022/01/19 00:45:26;;;;;;;24.48;7.90;;;;;;;6.82;100.00;102294.84;5025491;28;20032;-81
2022/01/19 00:47:52;;;;;;;20.60;7.90;;;;;;;6.79;100.00;102293.25;5046977;28;20127;-77
2022/01/19 00:50:24;;;;;;;26.73;8.20;;;;;;;6.80;100.00;102304.78;5048527;28;20171;-77
2022/01/19 00:52:51;;;;;;;21.42;7.55;;;;;;;6.88;100.00;102309.56;5046821;28;20039;-81
2022/01/19 00:55:17;;;;;;;10.02;5.07;;;;;;;6.96;100.00;102304.50;5043660;28;20047;-78
2022/01/19 00:57:43;;;;;;;24.40;7.20;;;;;;;7.06;100.00;102294.81;5065964;28;20040;-78
2022/01/19 01:00:18;;;;;;;20.83;7.97;;;;;;;7.04;100.00;102262.03;5027279;28;20032;-77
2022/01/19 01:02:44;;;;;;;29.15;7.50;;;;;;;7.14;100.00;102272.84;5014577;28;20131;-77
2022/01/19 01:05:10;;;;;;;20.83;7.85;;;;;;;7.21;100.00;102272.28;5027869;28;20138;-77
2022/01/19 01:07:38;;;;;;;15.73;6.25;;;;;;;7.26;100.00;102262.06;5027759;28;20071;-79
2022/01/19 01:10:06;;;;;;;17.75;6.78;;;;;;;7.28;100.00;102245.91;5014533;28;20028;-81
2022/01/19 01:12:44;;;;;;;19.77;5.95;;;;;;;7.25;100.00;102238.97;5034350;28;20029;-83
2022/01/19 01:20:36;;;;;;;19.80;5.93;;;;;;;7.27;100.00;102249.53;5065214;28;20033;-81
2022/01/19 01:23:03;;;;;;;18.65;6.75;;;;;;;7.31;100.00;102239.47;5025049;28;20044;-78
2022/01/19 01:25:28;;;;;;;20.00;7.05;;;;;;;7.32;100.00;102227.78;5033155;28;20043;-76
2022/01/19 01:27:54;;;;;;;6.50;2.95;;;;;;;7.31;100.00;102237.66;5027718;28;20097;-80
2022/01/19 01:30:20;;;;;;;18.25;6.60;;;;;;;7.15;100.00;102243.31;5031496;28;20044;-78
2022/01/19 01:32:46;;;;;;;19.90;6.13;;;;;;;7.11;100.00;102257.88;5041243;28;21005;-81
2022/01/19 01:35:12;;;;;;;18.98;5.90;;;;;;;7.10;100.00;102271.41;5030972;28;20550;-77
2022/01/19 01:37:37;;;;;;;17.98;6.55;;;;;;;7.14;100.00;102272.84;5014659;28;20042;-79
2022/01/19 01:40:05;;;;;;;18.27;5.47;;;;;;;7.17;100.00;102262.78;5029621;28;20130;-77
2022/01/19 01:42:30;;;;;;;26.13;5.70;;;;;;;7.24;100.00;102268.50;5041437;28;20045;-77
2022/01/19 01:44:59;;;;;;;15.88;5.32;;;;;;;7.20;100.00;102259.88;5031742;28;20081;-77
2022/01/19 01:47:26;;;;;;;22.23;6.75;;;;;;;7.15;100.00;102254.03;5049539;28;20032;-79
2022/01/19 01:55:10;;;;;;;9.88;2.90;;;;;;;7.29;100.00;102238.75;5060889;28;20478;-78
2022/01/19 01:57:36;;;;;;;19.08;5.78;;;;;;;7.34;100.00;102234.72;5044628;28;20565;-78
2022/01/19 02:00:05;;;;;;;7.63;2.80;;;;;;;7.46;100.00;102228.44;5042356;28;20104;-79
2022/01/19 02:02:31;;;;;;;13.15;4.25;;;;;;;7.48;100.00;102223.78;5062191;28;20060;-79
2022/01/19 02:04:56;;;;;;;13.75;4.32;;;;;;;7.55;100.00;102234.03;5011596;28;20494;-79
2022/01/19 02:09:52;;;;;;;9.13;3.00;;;;;;;7.56;100.00;102236.59;5028299;28;20051;-79
2022/01/19 02:25:57;;;;;;;11.52;3.35;;;;;;;7.61;100.00;102234.41;5047098;28;20035;-77
2022/01/19 02:36:52;;;;;;;16.98;3.03;;;;;;;7.52;100.00;102212.88;5029082;28;20139;-79
2022/01/19 02:42:10;;;;;;;10.80;2.30;;;;;;;7.80;100.00;102231.13;5049239;28;20116;-80
2022/01/19 02:46:37;;;;;;;10.70;2.15;;;;;;;7.90;100.00;102231.25;5044615;28;20036;-79
2022/01/19 02:49:55;;;;;;;12.88;2.13;;;;;;;8.05;100.00;102238.06;5052303;28;20047;-77
2022/01/19 02:52:22;;;;;;;8.97;2.20;;;;;;;8.10;100.00;102222.47;5033516;28;20028;-77
2022/01/19 02:54:49;;;;;;;15.57;2.47;;;;;;;8.12;100.00;102223.22;5031512;28;20309;-77
2022/01/19 02:57:15;;;;;;;8.55;1.70;;;;;;;8.14;100.00;102215.03;5035523;28;20070;-81
2022/01/19 03:10:35;;;;;;;3.75;1.42;;;;;;;8.31;100.00;102189.56;5039638;28;20046;-83
2022/01/19 03:13:01;;;;;;;11.55;1.88;;;;;;;8.36;100.00;102188.19;5017006;28;20142;-77
2022/01/19 03:15:27;;;;;;;3.63;1.30;;;;;;;8.39;100.00;102195.16;5030415;28;20068;-78
2022/01/19 03:17:57;;;;;;;4.47;1.05;;;;;;;8.38;100.00;102194.25;5047618;28;20123;-77
2022/01/19 03:20:23;;;;;;;11.50;1.70;;;;;;;8.35;100.00;102188.31;5049990;28;20040;-79
2022/01/19 03:23:00;;;;;;;6.40;1.17;;;;;;;8.34;100.00;102191.97;5042178;28;20028;-77
2022/01/19 03:25:26;;;;;;;1.95;0.82;;;;;;;8.14;100.00;102190.91;5024443;28;20421;-77
2022/01/19 03:27:51;;;;;;;9.32;2.60;;;;;;;8.02;100.00;102189.22;5019238;28;20055;-77
2022/01/19 03:30:18;;;;;;;8.43;1.85;;;;;;;8.05;100.00;102199.72;5042205;28;20144;-82
2022/01/19 03:32:44;;;;;;;6.05;1.10;;;;;;;8.09;100.00;102182.41;5045672;28;20395;-77
2022/01/19 03:35:11;;;;;;;2.35;0.95;;;;;;;8.17;100.00;102184.47;5016526;28;20044;-78
2022/01/19 03:37:36;;;;;;;6.18;1.17;;;;;;;8.19;100.00;102169.97;5059901;28;20090;-80
2022/01/19 03:40:07;;;;;;;16.90;2.78;;;;;;;8.24;100.00;102173.13;5013778;28;20040;-79
2022/01/19 03:42:34;;;;;;;5.18;1.77;;;;;;;8.20;100.00;102168.97;5063419;28;20596;-77
2022/01/19 03:44:59;;;;;;;8.50;1.40;;;;;;;8.06;100.00;102169.25;5049127;28;20028;-76
2022/01/19 03:47:27;;;;;;;11.55;1.73;;;;;;;7.85;100.00;102172.69;5016878;28;20028;-77
2022/01/19 03:49:53;;;;;;;7.35;2.90;;;;;;;7.86;100.00;102181.59;5069808;28;20036;-78
2022/01/19 03:52:19;;;;;;;6.85;1.50;;;;;;;8.01;100.00;102182.19;5015596;28;20051;-78
2022/01/19 03:54:45;;;;;;;4.47;1.27;;;;;;;8.11;100.00;102183.13;5033937;28;20040;-79
2022/01/19 03:57:11;;;;;;;11.77;1.65;;;;;;;8.18;100.00;102179.00;5045642;28;20040;-78
2022/01/19 03:59:37;;;;;;;14.10;2.17;;;;;;;8.20;100.00;102177.00;5034709;28;20032;-77
2022/01/19 04:02:04;;;;;;;6.95;1.73;;;;;;;8.23;100.00;102173.22;5020428;28;20398;-77
2022/01/19 04:09:28;;;;;;;16.52;1.95;;;;;;;8.30;100.00;102169.94;5033202;28;20127;-76
2022/01/19 04:11:55;;;;;;;15.70;1.83;;;;;;;8.29;100.00;102170.91;5034364;28;20036;-78
2022/01/19 04:14:27;;;;;;;8.95;1.60;;;;;;;8.34;100.00;102190.16;5031080;28;20085;-77
2022/01/19 04:17:15;;;;;;;4.28;1.33;;;;;;;8.32;100.00;102194.78;5028495;28;20032;-77
2022/01/19 04:19:46;;;;;;;14.93;2.08;;;;;;;8.36;100.00;102195.38;5049521;28;20124;-76
2022/01/19 04:22:14;;;;;;;7.43;1.55;;;;;;;8.36;100.00;102188.19;5014915;28;20036;-77
2022/01/19 04:24:41;;;;;;;7.38;2.15;;;;;;;8.39;100.00;102192.50;5039750;28;20386;-77
2022/01/19 04:30:01;;;;;;;1.77;1.10;;;;;;;8.45;100.00;102204.53;5048433;28;20056;-76
2022/01/19 04:35:06;;;;;;;10.18;1.58;;;;;;;8.48;100.00;102204.28;5030229;28;20185;-77
2022/01/19 05:04:21;;;;;;;6.88;1.73;;;;;;;8.57;100.00;102224.94;5049538;28;20063;-80
2022/01/19 05:06:51;;;;;;;12.45;1.88;;;;;;;8.58;100.00;102224.84;5029278;28;20033;-82
2022/01/19 05:09:39;;;;;;;4.47;1.20;;;;;;;8.59;100.00;102229.19;5032542;28;20036;-78
2022/01/19 05:14:50;;;;;;;6.15;1.00;;;;;;;8.64;100.00;102249.44;5043378;28;20190;-77
2022/01/19 05:17:15;;;;;;;3.10;0.95;;;;;;;8.63;100.00;102237.88;5031794;28;20584;-81
2022/01/19 05:19:41;;;;;;;6.75;1.42;;;;;;;8.65;100.00;102229.69;5044459;28;20025;-77
2022/01/19 05:22:07;;;;;;;4.88;1.70;;;;;;;8.62;100.00;102229.94;5014588;28;20475;-77
2022/01/19 05:24:33;;;;;;;6.53;1.52;;;;;;;8.59;100.00;102228.34;5047719;28;20029;-78
2022/01/19 05:26:58;;;;;;;12.13;2.30;;;;;;;8.52;100.00;102225.34;5014572;28;21848;-79
2022/01/19 05:29:24;;;;;;;2.60;0.90;;;;;;;8.51;100.00;102225.47;5009085;28;20047;-77
2022/01/19 05:31:49;;;;;;;8.10;1.40;;;;;;;8.46;100.00;102208.91;5050071;28;20039;-80
2022/01/19 05:34:15;;;;;;;15.07;1.67;;;;;;;8.54;100.00;102230.56;5017417;28;20059;-77
2022/01/19 05:36:41;;;;;;;17.05;2.03;;;;;;;8.51;100.00;102220.09;5015270;28;20024;-80
2022/01/19 05:39:06;;;;;;;4.45;1.10;;;;;;;8.55;100.00;102229.59;5041741;28;20040;-81
2022/01/19 05:41:32;;;;;;;9.27;1.40;;;;;;;8.57;100.00;102241.03;5040909;28;20036;-78
2022/01/19 05:43:58;;;;;;;10.35;2.08;;;;;;;8.48;100.00;102218.53;5016210;28;20017;-78
2022/01/19 05:46:24;;;;;;;9.15;1.17;;;;;;;8.51;100.00;102217.41;5067869;28;20033;-77
2022/01/19 05:48:50;;;;;;;5.75;1.80;;;;;;;8.54;100.00;102223.38;5032183;28;20036;-76
2022/01/19 05:51:15;;;;;;;2.85;0.77;;;;;;;8.53;100.00;102210.09;5015200;28;20386;-76
2022/01/19 05:53:41;;;;;;;10.15;1.63;;;;;;;8.53;100.00;102215.47;5032212;28;20071;-78
2022/01/19 05:56:08;;;;;;;5.22;1.10;;;;;;;8.48;100.00;102201.59;5027939;28;20384;-78
2022/01/19 05:58:33;;;;;;;3.67;0.90;;;;;;;8.53;100.00;102229.72;5025457;28;20028;-77
2022/01/19 06:00:59;;;;;;;5.30;1.30;;;;;;;8.50;100.00;102227.28;5045031;28;20035;-78
2022/01/19 06:03:25;;;;;;;10.65;1.50;;;;;;;8.56;100.00;102237.50;5049178;28;20036;-77
2022/01/19 06:05:50;;;;;;;14.68;1.48;;;;;;;8.57;100.00;102230.31;5014786;28;20040;-76
2022/01/19 06:08:18;;;;;;;6.03;1.30;;;;;;;8.52;100.00;102238.75;5029444;28;20028;-76
2022/01/19 06:10:45;;;;;;;4.05;1.42;;;;;;;8.56;100.00;102248.22;5014319;28;20037;-77
2022/01/19 06:13:16;;;;;;;8.60;1.20;;;;;;;8.56;100.00;102239.34;5047942;28;20054;-77
2022/01/19 06:15:44;;;;;;;8.93;1.77;;;;;;;8.40;100.00;102215.63;5013714;28;20072;-77
2022/01/19 06:18:10;;;;;;;5.53;1.23;;;;;;;8.49;100.00;102225.56;5028258;28;20064;-77
2022/01/19 06:20:36;;;;;;;6.47;1.58;;;;;;;8.50;100.00;102232.66;5030643;28;20089;-77
2022/01/19 06:23:02;;;;;;;8.88;1.98;;;;;;;8.50;100.00;102245.22;5003466;28;20044;-78
2022/01/19 06:25:30;;;;;;;5.00;1.30;;;;;;;8.42;100.00;102261.06;5057460;28;20402;-78
2022/01/19 06:27:56;;;;;;;4.70;1.42;;;;;;;8.13;100.00;102269.59;5026591;28;20040;-80
2022/01/19 06:30:22;;;;;;;8.65;1.63;;;;;;;7.87;100.00;102279.72;5025938;28;20078;-77
2022/01/19 06:32:48;;;;;;;5.38;0.88;;;;;;;7.62;100.00;102267.38;5034826;28;20121;-78
2022/01/19 06:35:14;;;;;;;6.40;1.15;;;;;;;7.56;100.00;102289.28;5031151;28;20044;-78
2022/01/19 06:37:40;;;;;;;5.65;1.20;;;;;;;7.37;100.00;102289.84;5044695;28;20034;-78
2022/01/19 06:40:08;;;;;;;6.70;1.38;;;;;;;7.36;100.00;102310.41;5012775;28;20411;-78
2022/01/19 06:42:34;;;;;;;0.73;0.60;;;;;;;7.26;100.00;102315.59;5033615;28;20036;-78
2022/01/19 06:44:59;;;;;;;7.78;1.35;;;;;;;7.24;100.00;102322.88;5013417;28;20051;-79
2022/01/19 06:47:25;;;;;;;9.10;1.25;;;;;;;7.11;100.00;102319.41;5015921;28;20020;-80
2022/01/19 06:49:51;;;;;;;10.80;1.58;;;;;;;7.07;100.00;102334.00;5032782;28;20786;-82
2022/01/19 06:52:16;;;;;;;6.88;1.40;;;;;;;6.99;100.00;102349.75;5011306;28;20045;-76
2022/01/19 06:54:42;;;;;;;11.48;1.58;;;;;;;6.92;100.00;102354.69;5012371;28;20127;-79
2022/01/19 06:57:08;;;;;;;5.25;1.40;;;;;;;6.87;100.00;102369.38;5032422;28;20044;-77
2022/01/19 06:59:33;;;;;;;5.80;1.30;;;;;;;6.83;100.00;102376.78;5011382;28;20040;-77
2022/01/19 07:01:59;;;;;;;2.30;1.10;;;;;;;6.75;100.00;102371.13;5029931;28;20060;-77
2022/01/19 07:04:25;;;;;;;4.90;1.27;;;;;;;6.65;100.00;102370.09;5015330;28;20136;-77
2022/01/19 07:06:50;;;;;;;9.80;1.33;;;;;;;6.55;100.00;102368.06;5027011;28;20040;-79
2022/01/19 07:09:16;;;;;;;9.85;1.92;;;;;;;6.38;100.00;102373.78;5046225;28;20514;-80
2022/01/19 07:11:42;;;;;;;17.10;2.50;;;;;;;6.26;100.00;102380.81;5028626;28;20032;-77
2022/01/19 07:14:14;;;;;;;6.40;1.20;;;;;;;6.20;100.00;102388.41;5032079;28;20036;-82
2022/01/19 07:16:40;;;;;;;8.02;1.35;;;;;;;6.16;100.00;102390.44;5027282;28;20425;-77
2022/01/19 07:19:06;;;;;;;8.65;1.27;;;;;;;6.10;100.00;102383.72;5031884;28;20036;-77
2022/01/19 07:21:32;;;;;;;2.00;0.82;;;;;;;5.92;100.00;102380.47;5013884;28;20032;-80
2022/01/19 07:23:57;;;;;;;3.38;0.88;;;;;;;5.87;100.00;102384.41;5024032;28;20086;-77
2022/01/19 07:26:23;;;;;;;8.73;1.33;;;;;;;5.88;100.00;102384.31;5003910;28;20558;-81
2022/01/19 07:28:49;;;;;;;9.45;1.25;;;;;;;5.87;100.00;102392.41;5022101;28;20112;-77
2022/01/19 07:31:14;;;;;;;9.63;1.73;;;;;;;5.87;100.00;102398.59;5026404;28;20028;-80
2022/01/19 07:33:40;;;;;;;8.43;1.27;;;;;;;5.90;100.00;102416.22;5040150;28;20112;-79
2022/01/19 07:36:06;;;;;;;3.75;1.10;;;;;;;5.88;100.00;102404.81;5013390;28;20389;-79
2022/01/19 07:38:31;;;;;;;5.50;1.10;;;;;;;5.81;100.00;102406.19;5030171;28;20378;-79
2022/01/19 07:40:57;;;;;;;6.28;1.30;;;;;;;5.58;100.00;102413.91;5043822;28;20036;-80
2022/01/19 07:43:23;;;;;;;6.50;1.38;;;;;;;5.31;100.00;102410.44;5038565;28;20036;-77
2022/01/19 07:45:49;;;;;;;6.78;1.50;;;;;;;5.11;100.00;102407.28;5012482;28;20139;-78
2022/01/19 07:48:15;;;;;;;6.10;1.48;;;;;;;4.83;100.00;102416.19;5031009;28;20087;-82
2022/01/19 07:50:41;;;;;;;11.32;1.30;;;;;;;4.67;100.00;102429.63;5031101;28;20419;-79
2022/01/19 07:53:07;;;;;;;12.50;2.00;;;;;;;4.49;100.00;102442.25;5014907;28;20137;-77
2022/01/19 07:55:33;;;;;;;8.80;1.58;;;;;;;4.33;100.00;102425.53;5065671;28;20039;-79
2022/01/19 07:57:58;;;;;;;16.90;1.92;;;;;;;4.55;100.00;102438.34;5017296;28;20040;-77
2022/01/19 08:00:24;;;;;;;5.82;1.38;;;;;;;4.67;100.00;102437.59;5038336;28;20085;-82
2022/01/19 08:02:50;;;;;;;15.98;3.03;;;;;;;4.81;100.00;102442.91;5046685;28;20055;-82
2022/01/19 08:05:17;;;;;;;15.50;2.10;;;;;;;4.85;100.00;102441.78;5030141;28;20035;-78
2022/01/19 08:07:43;;;;;;;8.32;1.52;;;;;;;4.84;100.00;102440.06;5028973;28;20032;-77
2022/01/19 08:10:10;;;;;;;13.95;1.85;;;;;;;4.91;100.00;102456.53;5029776;28;20061;-78
2022/01/19 08:12:36;;;;;;;6.80;1.80;;;;;;;4.80;100.00;102465.19;5031131;28;20029;-78
2022/01/19 08:15:02;;;;;;;9.77;2.15;;;;;;;4.81;100.00;102474.91;5016102;28;20529;-77
2022/01/19 08:17:28;;;;;;;7.60;1.50;;;;;;;4.83;100.00;102480.13;5045824;28;20131;-79
2022/01/19 08:19:54;;;;;;;6.43;1.67;;;;;;;4.82;100.00;102491.75;5034493;28;20086;-77
2022/01/19 08:22:20;;;;;;;9.00;1.63;;;;;;;4.83;100.00;102504.13;5030756;28;20036;-82
2022/01/19 08:24:45;;;;;;;14.98;2.67;;;;;;;4.91;100.00;102503.66;5047717;28;20437;-77
2022/01/19 08:27:12;;;;;;;9.07;2.40;;;;;;;5.03;100.00;102511.75;5038570;28;20060;-79
2022/01/19 08:29:37;;;;;;;12.00;1.90;;;;;;;4.98;100.00;102473.84;5012850;28;20070;-77
2022/01/19 08:32:05;;;;;;;1.65;1.25;;;;;;;5.11;100.00;102489.03;5017654;28;20067;-79
2022/01/19 08:34:31;;;;;;;8.38;1.25;;;;;;;5.15;100.00;102507.41;5015883;28;20102;-80
2022/01/19 08:36:58;;;;;;;10.38;1.50;;;;;;;5.24;100.00;102517.53;5026707;28;20287;-81
2022/01/19 08:39:26;;;;;;;3.42;0.77;;;;;;;5.26;100.00;102510.25;5049880;28;20389;-78
2022/01/19 08:41:53;;;;;;;1.70;0.98;;;;;;;5.33;100.00;102517.88;5026187;28;20147;-78
2022/01/19 08:44:19;;;;;;;3.33;0.90;;;;;;;5.38;100.00;102529.13;5043340;28;20037;-77
2022/01/19 08:46:45;;;;;;;12.90;2.97;;;;;;;5.39;100.00;102542.34;5045211;28;20037;-79
2022/01/19 08:49:11;;;;;;;8.63;1.88;;;;;;;5.32;100.00;102543.72;5023379;28;20032;-77
2022/01/19 08:51:37;;;;;;;5.03;1.48;;;;;;;5.25;100.00;102550.38;5030196;28;20032;-78
2022/01/19 08:54:03;;;;;;;1.38;0.68;;;;;;;5.07;100.00;102549.72;5045050;28;20078;-78
2022/01/19 08:56:29;;;;;;;9.77;2.05;;;;;;;4.95;100.00;102566.47;5045033;28;20541;-77
2022/01/19 08:58:55;;;;;;;4.05;1.23;;;;;;;4.87;100.00;102566.09;5013136;28;20031;-79
2022/01/19 09:01:22;;;;;;;12.18;2.33;;;;;;;4.73;100.00;102578.44;5048340;28;20033;-78
2022/01/19 09:03:47;;;;;;;8.05;1.02;;;;;;;4.56;100.00;102574.16;5058380;28;20045;-77
2022/01/19 09:06:13;;;;;;;20.70;2.35;;;;;;;4.63;100.00;102596.81;5012646;28;20049;-78
2022/01/19 09:08:41;;;;;;;2.22;1.35;;;;;;;4.91;100.00;102605.78;5033297;28;20075;-77
2022/01/19 09:11:08;;;;;;;1.48;1.00;;;;;;;5.25;100.00;102603.72;5014772;28;20044;-79
2022/01/19 09:13:34;;;;;;;7.50;1.20;;;;;;;5.57;100.00;102614.16;5048202;28;20418;-78
2022/01/19 09:16:00;;;;;;;6.97;1.13;;;;;;;5.70;100.00;102609.75;5010954;28;20059;-79
2022/01/19 09:18:26;;;;;;;8.70;1.52;;;;;;;5.79;100.00;102617.16;5057505;28;20029;-79
2022/01/19 09:20:52;;;;;;;6.50;1.60;;;;;;;5.73;100.00;102621.09;5043859;28;20044;-77
2022/01/19 09:23:17;;;;;;;10.00;2.10;;;;;;;5.69;100.00;102613.41;5010936;28;20542;-78
2022/01/19 09:25:43;;;;;;;3.97;1.55;;;;;;;5.77;100.00;102612.88;5029706;28;20032;-78
2022/01/19 09:28:09;;;;;;;12.10;1.90;;;;;;;5.89;100.00;102610.28;5019879;28;20075;-77
2022/01/19 09:30:35;;;;;;;7.43;1.63;;;;;;;5.99;100.00;102618.59;5046268;28;20060;-78
2022/01/19 09:33:09;;;;;;;6.65;1.92;;;;;;;6.11;100.00;102636.47;5030784;28;20094;-78
2022/01/19 09:36:03;;;;;;;16.42;2.08;;;;;;;6.73;100.00;102627.88;5028251;28;20037;-77
2022/01/19 09:38:27;;;;;;;4.38;1.15;;;;;;;7.41;100.00;102633.84;5044708;28;20067;-79
2022/01/19 09:40:53;;;;;;;4.40;1.25;;;;;;;7.07;100.00;102657.66;5045274;28;20028;-79
2022/01/19 09:43:22;;;;;;;6.63;1.92;;;;;;;7.45;100.00;102654.09;5028505;28;20516;-78
2022/01/19 09:45:58;;;;;;;10.50;2.10;;;;;;;7.79;100.00;102665.91;5030702;28;20036;-78
2022/01/19 09:48:25;;;;;;;7.38;1.88;;;;;;;7.43;100.00;102661.38;5030128;28;20036;-77
2022/01/19 09:50:52;;;;;;;8.38;2.15;;;;;;;7.20;100.00;102661.19;5026751;28;20048;-79
2022/01/19 09:53:17;;;;;;;6.00;1.48;;;;;;;7.27;100.00;102685.69;5004628;28;20044;-78
2022/01/19 09:55:45;;;;;;;6.53;1.55;;;;;;;7.12;100.00;102697.44;5015930;28;20048;-78
2022/01/19 09:58:11;;;;;;;8.70;2.05;;;;;;;7.04;100.00;102696.16;5039363;28;20072;-78
2022/01/19 10:00:40;;;;;;;6.13;1.75;;;;;;;7.00;100.00;102685.78;5046102;28;20060;-83
2022/01/19 10:03:18;;;;;;;16.25;3.58;;;;;;;6.82;100.00;102653.97;5040464;28;20040;-80
2022/01/19 10:06:07;;;;;;;8.40;1.85;;;;;;;6.77;100.00;102636.53;5011743;28;20040;-79
2022/01/19 10:08:42;;;;;;;13.55;2.90;;;;;;;6.99;100.00;102650.16;4999893;28;20482;-79
2022/01/19 10:11:29;;;;;;;14.00;3.00;;;;;;;7.26;100.00;102667.91;5027521;28;20235;-79
2022/01/19 10:17:01;;;;;;;4.53;1.15;;;;;;;7.69;100.00;102691.63;5019736;28;20049;-79
2022/01/19 10:19:31;;;;;;;8.55;1.90;;;;;;;7.65;100.00;102695.53;5033361;28;20037;-84
2022/01/19 10:22:08;;;;;;;4.57;1.92;;;;;;;7.62;100.00;102669.81;5017510;28;20064;-80
2022/01/19 10:24:57;;;;;;;9.70;2.97;;;;;;;7.89;100.00;102691.06;5067685;28;20027;-81
2022/01/19 10:27:32;;;;;;;12.43;2.38;;;;;;;8.07;100.00;102696.94;5048951;28;20112;-78
2022/01/19 10:29:57;;;;;;;7.93;1.85;;;;;;;8.05;100.00;102706.88;5052986;28;20096;-79
2022/01/19 10:32:25;;;;;;;9.77;2.58;;;;;;;8.20;97.47;102701.38;5071083;28;20036;-80
2022/01/19 10:34:51;;;;;;;10.77;2.97;;;;;;;8.36;98.84;102710.88;5036432;28;20123;-79
2022/01/19 10:37:25;;;;;;;12.27;2.70;;;;;;;8.55;97.90;102706.84;5052961;28;20032;-79
2022/01/19 10:39:54;;;;;;;10.43;2.38;;;;;;;8.73;96.10;102721.56;5014513;28;20092;-80
2022/01/19 10:42:22;;;;;;;3.22;1.55;;;;;;;8.69;98.23;102706.66;5054770;28;20086;-80
2022/01/19 10:44:57;;;;;;;9.80;2.30;;;;;;;8.72;98.17;102716.28;5032999;28;20035;-79
2022/01/19 10:47:41;;;;;;;4.85;1.30;;;;;;;8.63;96.95;102731.25;5033039;28;20068;-79
2022/01/19 10:50:12;;;;;;;7.18;1.65;;;;;;;8.49;92.15;102729.59;5044746;28;20493;-79
2022/01/19 10:52:40;;;;;;;5.18;1.50;;;;;;;8.43;94.04;102721.16;5004276;28;20060;-79
2022/01/19 10:55:09;;;;;;;10.25;2.15;;;;;;;8.43;94.65;102727.38;5016558;28;20036;-80
2022/01/19 10:57:37;;;;;;;4.72;1.52;;;;;;;8.44;91.45;102738.94;5046816;28;20107;-80
2022/01/19 11:00:30;;;;;;;7.88;1.70;;;;;;;8.34;95.27;102744.97;5027271;28;20032;-80
2022/01/19 11:03:02;;;;;;;9.40;2.08;;;;;;;8.32;94.38;102754.09;5037809;28;20041;-80
2022/01/19 11:05:49;;;;;;;2.75;1.73;;;;;;;8.18;89.65;102711.34;5053718;28;20061;-79
2022/01/19 11:08:17;;;;;;;20.17;2.20;;;;;;;8.41;89.06;102747.22;5039645;28;20094;-80
2022/01/19 11:10:49;;;;;;;3.35;0.70;;;;;;;8.34;92.85;102741.44;5039393;28;20398;-79
2022/01/19 11:13:29;;;;;;;9.93;1.48;;;;;;;8.31;87.51;102741.66;5016974;28;20060;-79
2022/01/19 11:16:04;;;;;;;5.50;1.98;;;;;;;8.40;84.65;102750.88;5071732;28;20025;-82
2022/01/19 11:18:32;;;;;;;6.57;1.48;;;;;;;8.54;87.60;102753.38;5030192;28;20119;-83
2022/01/19 11:21:01;;;;;;;11.32;1.80;;;;;;;8.68;89.47;102746.97;5052684;28;20047;-78
2022/01/19 11:23:57;;;;;;;11.98;1.55;;;;;;;9.11;92.29;102752.66;5035791;28;20040;-79
2022/01/19 11:26:28;;;;;;;10.65;2.15;;;;;;;9.01;85.62;102757.00;5044721;28;20413;-88
2022/01/19 11:28:54;;;;;;;14.68;1.98;;;;;;;8.93;87.90;102764.78;5073781;28;20413;-83
2022/01/19 11:31:22;;;;;;;17.20;1.40;;;;;;;8.95;84.12;102760.16;5021555;28;20040;-88
2022/01/19 11:33:56;;;;;;;5.93;1.75;;;;;;;8.98;80.65;102755.41;5052176;28;20036;-84
2022/01/19 11:36:23;;;;;;;7.40;2.15;;;;;;;9.04;78.41;102756.78;5052762;28;20052;-80
2022/01/19 11:39:12;;;;;;;10.02;2.63;;;;;;;9.06;77.29;102754.84;5054247;28;20032;-82
2022/01/19 11:41:47;;;;;;;7.45;1.92;;;;;;;8.92;79.40;102758.56;5052145;28;20131;-80
2022/01/19 11:44:30;;;;;;;4.63;1.45;;;;;;;8.85;81.93;102757.31;5056255;28;20127;-77
2022/01/19 11:47:02;;;;;;;7.63;1.67;;;;;;;8.89;78.94;102764.19;5055495;28;20028;-86
2022/01/19 11:49:49;;;;;;;10.10;1.92;;;;;;;8.91;76.24;102770.25;5034615;28;20040;-84
2022/01/19 11:52:24;;;;;;;15.93;1.92;;;;;;;8.89;77.65;102769.53;5037292;28;20028;-78
2022/01/19 11:54:51;;;;;;;8.90;1.27;;;;;;;8.96;78.40;102786.00;5034371;28;20037;-78
2022/01/19 11:57:27;;;;;;;9.95;1.67;;;;;;;9.17;81.28;102803.16;5056056;28;20489;-81
2022/01/19 12:00:20;;;;;;;9.45;1.98;;;;;;;9.63;75.24;102780.84;5032988;28;20135;-86
2022/01/19 12:02:48;;;;;;;6.88;1.88;;;;;;;9.93;75.12;102794.66;5065162;28;20111;-85
2022/01/19 12:05:55;;;;;;;3.83;1.60;;;;;;;9.94;81.15;102799.06;5017805;28;20486;-82
2022/01/19 12:08:35;;;;;;;5.55;1.50;;;;;;;9.83;77.27;102789.16;4961647;28;20039;-81
2022/01/19 12:11:11;;;;;;;5.43;1.85;;;;;;;9.87;79.92;102783.44;5028424;28;20045;-81
2022/01/19 12:13:56;;;;;;;8.25;2.55;;;;;;;9.95;73.01;102785.50;5040762;28;20048;-82
2022/01/19 12:18:58;;;;;;;5.28;1.90;;;;;;;9.71;79.31;102782.91;5046757;28;20044;-82
2022/01/19 12:21:32;;;;;;;9.00;1.80;;;;;;;9.66;71.30;102775.22;5038100;28;20033;-78
2022/01/19 12:24:18;;;;;;;7.20;2.03;;;;;;;9.65;70.23;102778.88;5052080;28;20487;-77
2022/01/19 12:26:56;;;;;;;7.28;1.50;;;;;;;9.61;70.61;102777.41;5048397;28;20035;-80
2022/01/19 12:29:36;;;;;;;10.20;2.05;;;;;;;9.79;69.34;102785.88;5038092;28;20063;-78
2022/01/19 12:32:25;;;;;;;5.03;1.42;;;;;;;10.01;67.90;102798.44;5055161;28;20032;-79
2022/01/19 12:34:53;;;;;;;5.85;1.20;;;;;;;10.19;69.22;102806.00;4992648;28;20084;-82
2022/01/19 12:37:24;;;;;;;15.85;1.55;;;;;;;10.42;68.35;102794.28;5012668;28;20127;-86
2022/01/19 12:39:51;;;;;;;10.52;1.80;;;;;;;10.91;64.61;102779.47;5035473;28;20036;-83
2022/01/19 12:42:39;;;;;;;5.10;1.40;;;;;;;11.56;61.43;102790.97;5037819;28;20043;-82
2022/01/19 12:45:21;;;;;;;6.80;1.95;;;;;;;11.59;59.71;102773.69;5033760;28;20143;-80
2022/01/19 12:47:50;;;;;;;5.65;1.25;;;;;;;11.34;61.03;102793.84;5052591;28;20107;-79
2022/01/19 12:50:16;;;;;;;4.15;1.52;;;;;;;10.88;61.71;102790.50;5036626;28;20433;-82
2022/01/19 12:52:45;;;;;;;8.88;1.15;;;;;;;10.71;63.50;102797.25;5061306;28;20471;-78
2022/01/19 12:55:12;;;;;;;8.00;1.88;;;;;;;14.02;52.04;102780.16;5049385;28;20036;-82
2022/01/19 12:57:38;;;;;;;5.80;2.40;;;;;;;15.87;46.99;102794.13;5028218;28;20032;-86
2022/01/19 13:00:07;;;;;;;6.10;1.88;;;;;;;15.41;46.24;102793.47;5021848;28;20070;-79
2022/01/19 13:02:33;;;;;;;5.57;1.27;;;;;;;14.01;49.81;102794.72;5061717;28;20045;-84
2022/01/19 13:05:12;;;;;;;2.92;1.30;;;;;;;12.60;55.02;102786.34;5019778;28;20044;-80
2022/01/19 13:07:40;;;;;;;4.95;1.55;;;;;;;12.01;56.20;102784.44;5054275;28;20075;-79
2022/01/19 13:10:24;;;;;;;23.60;2.22;;;;;;;11.26;57.53;102772.94;5020064;28;20050;-82